Time;durP1;ratioP1;P1;durP2;ratioP2;P2;SDS_P1;SDS_P2;PMS_P1;PMS_P2;Temp;Humidity;BMP_temperature;BMP_pressure;BME280_temperature;BME280_humidity;BME280_pressure;Samples;Min_cycle;Max_cycle;Signal;HPM_P1;HPM_P2
2021/05/08 00:00:57;;;;;;;0.30;0.30;;;;;;;11.61;35.58;98342.22;5015211;28;20038;-63
2021/05/08 00:03:23;;;;;;;0.10;0.10;;;;;;;11.65;35.58;98344.22;4997921;28;20068;-62
2021/05/08 00:05:49;;;;;;;0.10;0.10;;;;;;;11.70;35.50;98341.56;5015506;28;20034;-62
2021/05/08 00:08:16;;;;;;;0.10;0.10;;;;;;;11.77;35.25;98335.03;5015538;28;20026;-62
2021/05/08 00:10:42;;;;;;;0.20;0.20;;;;;;;11.83;35.19;98345.81;5015404;28;20040;-62
2021/05/08 00:13:09;;;;;;;0.10;0.10;;;;;;;11.89;35.10;98339.31;5015045;28;20080;-62
2021/05/08 00:15:35;;;;;;;0.20;0.20;;;;;;;11.96;35.16;98347.41;5014433;28;20471;-62
2021/05/08 00:18:01;;;;;;;0.20;0.20;;;;;;;11.99;35.03;98346.91;5014739;28;20037;-62
2021/05/08 00:20:26;;;;;;;0.30;0.30;;;;;;;12.00;35.06;98347.72;5014446;28;20377;-63
2021/05/08 00:22:52;;;;;;;0.10;0.10;;;;;;;11.99;35.21;98344.16;5014442;28;20053;-62
2021/05/08 00:25:18;;;;;;;0.10;0.10;;;;;;;12.02;35.12;98349.13;5014758;28;20034;-62
2021/05/08 00:27:43;;;;;;;0.35;0.35;;;;;;;12.05;35.08;98345.03;5015115;28;20068;-62
2021/05/08 00:30:10;;;;;;;0.10;0.10;;;;;;;12.12;35.16;98340.19;5014747;28;20059;-63
2021/05/08 00:32:36;;;;;;;0.10;0.10;;;;;;;12.23;35.00;98341.97;5014901;28;20037;-62
2021/05/08 00:35:02;;;;;;;0.10;0.10;;;;;;;12.35;34.82;98335.47;5014299;28;20030;-62
2021/05/08 00:37:28;;;;;;;0.20;0.20;;;;;;;12.52;34.43;98346.41;4996757;28;20413;-63
2021/05/08 00:39:54;;;;;;;0.20;0.20;;;;;;;12.75;34.14;98348.00;5014850;28;20087;-62
2021/05/08 00:42:19;;;;;;;0.10;0.10;;;;;;;13.17;33.89;98344.53;5014260;28;20036;-63
2021/05/08 00:44:45;;;;;;;0.20;0.20;;;;;;;14.08;32.55;98344.59;5014204;28;20115;-62
2021/05/08 00:47:12;;;;;;;0.10;0.10;;;;;;;15.68;30.64;98329.88;5014702;28;20089;-62
2021/05/08 00:49:39;;;;;;;0.10;0.10;;;;;;;17.59;28.44;98328.78;5014180;28;20119;-61
2021/05/08 00:52:05;;;;;;;0.28;0.28;;;;;;;19.30;26.84;98333.78;5014091;28;20037;-62
2021/05/08 00:54:32;;;;;;;0.10;0.10;;;;;;;20.72;25.83;98330.53;5012791;28;20030;-62
2021/05/08 00:56:58;;;;;;;0.47;0.40;;;;;;;21.90;25.08;98333.19;5014190;28;20030;-62
2021/05/08 00:59:24;;;;;;;0.10;0.10;;;;;;;22.99;24.57;98326.06;5013816;28;20046;-63
2021/05/08 01:01:50;;;;;;;0.10;0.10;;;;;;;23.93;23.72;98328.28;5014116;28;20038;-62
2021/05/08 01:04:16;;;;;;;0.10;0.10;;;;;;;24.24;23.91;98326.34;4996477;28;20056;-62
2021/05/08 01:06:42;;;;;;;0.28;0.28;;;;;;;23.95;24.95;98339.16;5014069;28;20025;-61
2021/05/08 01:09:08;;;;;;;0.10;0.10;;;;;;;24.21;24.60;98338.25;5014170;28;20032;-62
2021/05/08 01:11:36;;;;;;;0.10;0.10;;;;;;;24.72;24.53;98330.72;5014174;28;20062;-63
2021/05/08 01:14:03;;;;;;;0.10;0.10;;;;;;;25.07;24.30;98333.25;5013780;28;20092;-63
2021/05/08 01:16:29;;;;;;;0.10;0.10;;;;;;;25.54;24.62;98337.81;4996044;28;20054;-62
2021/05/08 01:18:58;;;;;;;0.47;0.20;;;;;;;26.19;23.78;98332.50;5014111;28;20491;-62
2021/05/08 01:21:24;;;;;;;0.10;0.10;;;;;;;26.39;23.95;98343.97;5013487;28;20095;-72
2021/05/08 01:23:51;;;;;;;0.15;0.15;;;;;;;26.06;24.52;98336.47;5013623;28;20396;-65
2021/05/08 01:26:18;;;;;;;0.10;0.10;;;;;;;26.04;24.99;98333.16;4995587;28;20076;-66
2021/05/08 01:28:44;;;;;;;0.10;0.10;;;;;;;26.08;24.69;98338.94;5013486;28;20096;-66
2021/05/08 01:31:12;;;;;;;0.10;0.10;;;;;;;26.58;24.23;98335.75;5013594;28;20041;-65
2021/05/08 01:33:38;;;;;;;0.20;0.20;;;;;;;27.17;24.04;98324.28;5013322;28;20042;-67
2021/05/08 01:36:04;;;;;;;0.10;0.10;;;;;;;28.08;23.06;98325.63;5013788;28;20491;-66
2021/05/08 01:38:32;;;;;;;0.10;0.10;;;;;;;28.79;22.97;98329.41;4995710;28;20076;-64
2021/05/08 01:41:07;;;;;;;0.10;0.10;;;;;;;29.00;22.57;98323.44;5013464;28;20385;-63
2021/05/08 01:43:33;;;;;;;0.10;0.10;;;;;;;29.34;22.54;98326.59;5013134;28;20117;-63
2021/05/08 01:45:59;;;;;;;0.10;0.10;;;;;;;29.38;22.64;98334.31;5011866;28;20036;-62
2021/05/08 01:48:27;;;;;;;0.40;0.20;;;;;;;28.60;23.42;98329.31;5013352;28;20026;-61
2021/05/08 01:50:53;;;;;;;0.10;0.10;;;;;;;26.93;25.31;98340.09;4979236;28;20030;-60
2021/05/08 01:53:19;;;;;;;0.20;0.20;;;;;;;25.68;26.73;98331.91;5011892;28;20472;-60
2021/05/08 01:55:45;;;;;;;0.15;0.15;;;;;;;27.14;24.81;98320.19;4995450;28;20197;-60
2021/05/08 01:58:11;;;;;;;0.10;0.10;;;;;;;29.16;23.00;98325.34;5012935;28;20400;-60
2021/05/08 02:00:41;;;;;;;0.10;0.10;;;;;;;30.63;21.77;98313.16;5012857;28;20041;-60
2021/05/08 02:03:08;;;;;;;0.10;0.10;;;;;;;31.49;20.93;98327.69;5012923;28;20049;-60
2021/05/08 02:05:35;;;;;;;0.28;0.28;;;;;;;32.06;20.63;98315.34;5012956;28;20397;-58
2021/05/08 02:08:04;;;;;;;0.10;0.10;;;;;;;31.94;21.01;98320.09;5012862;28;20137;-59
2021/05/08 02:10:34;;;;;;;0.10;0.10;;;;;;;31.84;21.37;98323.66;5012687;28;20026;-59
2021/05/08 02:13:02;;;;;;;2.40;0.28;;;;;;;31.66;21.65;98334.81;5013019;28;20037;-61
2021/05/08 02:15:28;;;;;;;0.10;0.10;;;;;;;31.23;22.13;98328.59;5012535;28;20029;-61
2021/05/08 02:17:54;;;;;;;0.10;0.10;;;;;;;30.68;22.64;98338.34;5012884;28;20048;-58
2021/05/08 02:20:32;;;;;;;0.13;0.13;;;;;;;30.78;22.40;98331.19;5012616;28;20034;-59
2021/05/08 02:23:01;;;;;;;0.00;0.00;;;;;;;30.73;22.47;98338.00;5013145;28;20080;-59
2021/05/08 02:25:28;;;;;;;0.10;0.10;;;;;;;31.04;22.51;98336.03;5012450;28;20057;-60
2021/05/08 02:27:55;;;;;;;0.10;0.10;;;;;;;31.73;21.90;98328.38;4995298;28;20030;-59
2021/05/08 02:30:24;;;;;;;0.10;0.10;;;;;;;32.58;21.00;98324.75;5012587;28;20042;-60
2021/05/08 02:32:51;;;;;;;0.10;0.10;;;;;;;33.38;20.47;98336.59;5013124;28;20084;-59
2021/05/08 02:35:18;;;;;;;0.10;0.10;;;;;;;32.98;20.95;98323.00;5012554;28;20040;-60
2021/05/08 02:37:44;;;;;;;0.28;0.28;;;;;;;31.14;22.82;98337.41;5012961;28;20030;-58
2021/05/08 02:40:14;;;;;;;0.10;0.10;;;;;;;30.47;23.28;98332.31;5016147;28;20034;-59
2021/05/08 02:42:41;;;;;;;0.10;0.10;;;;;;;30.73;23.23;98331.53;5016658;28;20037;-57
2021/05/08 02:45:08;;;;;;;0.10;0.10;;;;;;;32.46;21.49;98325.84;5016482;28;20030;-60
2021/05/08 02:47:36;;;;;;;0.10;0.10;;;;;;;34.25;20.06;98324.25;5016795;28;20041;-58
2021/05/08 02:50:03;;;;;;;0.10;0.10;;;;;;;34.23;20.27;98336.06;5016235;28;20037;-58
2021/05/08 02:52:29;;;;;;;0.20;0.20;;;;;;;33.32;20.86;98344.75;5016390;28;20085;-58
2021/05/08 02:54:54;;;;;;;0.10;0.10;;;;;;;32.26;22.17;98345.19;5016278;28;20121;-58
2021/05/08 02:57:20;;;;;;;0.10;0.10;;;;;;;30.73;23.56;98345.69;5016094;28;20029;-60
2021/05/08 02:59:46;;;;;;;0.10;0.10;;;;;;;29.18;25.04;98345.59;4998971;28;20133;-59
2021/05/08 03:02:12;;;;;;;0.00;0.00;;;;;;;27.85;26.05;98354.41;5016041;28;20029;-59
2021/05/08 03:04:37;;;;;;;0.20;0.20;;;;;;;26.71;27.33;98364.75;5016011;28;20034;-59
2021/05/08 03:07:04;;;;;;;0.10;0.10;;;;;;;25.75;28.07;98353.81;5015001;28;20041;-60
2021/05/08 03:09:31;;;;;;;0.20;0.20;;;;;;;25.00;28.30;98352.66;5015660;28;20511;-59
2021/05/08 03:11:58;;;;;;;0.10;0.10;;;;;;;24.41;28.60;98354.31;5016045;28;20030;-60
2021/05/08 03:14:23;;;;;;;0.10;0.10;;;;;;;24.09;28.70;98355.78;5015878;28;20030;-60
2021/05/08 03:16:49;;;;;;;0.10;0.10;;;;;;;23.84;28.74;98363.09;5016473;28;20125;-59
2021/05/08 03:19:15;;;;;;;0.10;0.10;;;;;;;23.51;28.71;98356.06;5015742;28;20060;-58
2021/05/08 03:21:41;;;;;;;0.10;0.10;;;;;;;23.20;28.46;98357.09;5014524;28;20038;-59
2021/05/08 03:24:08;;;;;;;0.00;0.00;;;;;;;22.90;28.72;98359.66;5014340;28;20045;-58
2021/05/08 03:26:33;;;;;;;0.10;0.10;;;;;;;22.60;28.53;98366.19;5015850;28;20026;-58
2021/05/08 03:29:00;;;;;;;0.10;0.10;;;;;;;22.36;28.69;98364.66;5016239;28;20034;-60
2021/05/08 03:31:26;;;;;;;0.10;0.10;;;;;;;22.39;28.40;98364.00;5015486;28;20025;-59
2021/05/08 03:33:52;;;;;;;0.10;0.10;;;;;;;22.59;28.10;98365.38;5015840;28;20412;-60
2021/05/08 03:36:18;;;;;;;0.10;0.10;;;;;;;22.81;27.48;98349.63;5015904;28;20085;-59
2021/05/08 03:38:43;;;;;;;0.10;0.10;;;;;;;22.91;27.22;98358.53;5015927;28;20037;-59
2021/05/08 03:41:09;;;;;;;0.10;0.10;;;;;;;22.89;27.09;98363.63;5015773;28;20118;-59
2021/05/08 03:43:35;;;;;;;0.10;0.10;;;;;;;22.67;27.31;98363.75;5015305;28;20484;-60
2021/05/08 03:46:01;;;;;;;0.55;0.38;;;;;;;22.39;27.42;98369.59;5015539;28;20073;-59
2021/05/08 03:48:27;;;;;;;0.10;0.10;;;;;;;22.11;27.37;98360.56;5015380;28;20038;-58
2021/05/08 03:50:53;;;;;;;0.10;0.10;;;;;;;21.87;27.80;98359.81;5015291;28;20413;-59
2021/05/08 03:53:21;;;;;;;0.20;0.20;;;;;;;21.57;28.25;98357.81;5015357;28;20041;-59
2021/05/08 03:55:48;;;;;;;0.10;0.10;;;;;;;21.25;28.23;98363.31;5015479;28;20403;-59
2021/05/08 03:58:14;;;;;;;0.10;0.10;;;;;;;20.97;28.46;98359.81;5015112;28;20053;-60
2021/05/08 04:00:40;;;;;;;0.28;0.20;;;;;;;20.72;28.70;98352.84;5014818;28;20034;-60
2021/05/08 04:03:06;;;;;;;0.10;0.10;;;;;;;20.53;28.87;98359.34;5010913;28;20026;-59
2021/05/08 04:05:32;;;;;;;0.10;0.10;;;;;;;20.37;28.78;98360.81;5013222;28;20033;-59
2021/05/08 04:07:58;;;;;;;0.20;0.20;;;;;;;20.20;28.87;98353.91;5013360;28;20029;-59
2021/05/08 04:10:23;;;;;;;0.32;0.32;;;;;;;20.01;29.00;98361.50;5013175;28;20112;-59
2021/05/08 04:12:50;;;;;;;0.20;0.20;;;;;;;19.80;29.26;98359.09;5013528;28;20431;-60
2021/05/08 04:15:17;;;;;;;0.20;0.20;;;;;;;19.59;29.42;98353.88;5013259;28;20025;-59
2021/05/08 04:17:43;;;;;;;0.10;0.10;;;;;;;19.37;29.32;98360.09;5012922;28;20049;-59
2021/05/08 04:20:09;;;;;;;0.10;0.10;;;;;;;19.21;29.53;98351.19;5012776;28;20184;-59
2021/05/08 04:22:35;;;;;;;0.10;0.10;;;;;;;19.09;29.56;98356.38;5012700;28;20053;-59
2021/05/08 04:25:01;;;;;;;0.10;0.10;;;;;;;18.99;29.83;98357.41;5012454;28;21349;-60
2021/05/08 04:27:26;;;;;;;0.10;0.10;;;;;;;18.94;29.67;98364.97;4992784;28;20029;-61
2021/05/08 04:29:54;;;;;;;0.10;0.10;;;;;;;18.92;29.48;98354.16;5012700;28;20045;-59
2021/05/08 04:32:21;;;;;;;0.20;0.20;;;;;;;18.93;29.50;98355.78;5012810;28;20019;-61
2021/05/08 04:34:47;;;;;;;1.75;0.25;;;;;;;18.97;29.39;98351.28;5010255;28;20057;-59
2021/05/08 04:37:13;;;;;;;0.40;0.40;;;;;;;19.05;29.35;98349.75;4995346;28;20033;-59
2021/05/08 04:39:39;;;;;;;0.47;0.45;;;;;;;19.20;29.15;98351.50;5009902;28;20034;-63
2021/05/08 04:42:04;;;;;;;0.10;0.10;;;;;;;19.28;29.16;98348.00;5012406;28;20034;-61
2021/05/08 04:44:30;;;;;;;0.10;0.10;;;;;;;19.37;28.85;98345.38;5012778;28;20495;-59
2021/05/08 04:46:56;;;;;;;0.28;0.28;;;;;;;19.40;28.78;98353.09;5012826;28;20038;-62
2021/05/08 04:49:22;;;;;;;0.10;0.10;;;;;;;19.39;28.85;98349.50;4994742;28;20030;-60
2021/05/08 04:51:48;;;;;;;0.10;0.10;;;;;;;19.33;29.14;98342.38;4995177;28;20515;-62
2021/05/08 04:54:15;;;;;;;0.10;0.10;;;;;;;19.33;28.92;98333.19;5012516;28;20510;-62
2021/05/08 04:56:41;;;;;;;0.10;0.10;;;;;;;19.32;29.11;98335.16;5012247;28;20030;-60
2021/05/08 04:59:07;;;;;;;0.20;0.20;;;;;;;19.33;29.00;98344.31;5009438;28;20135;-61
2021/05/08 05:01:33;;;;;;;0.10;0.10;;;;;;;19.32;29.07;98331.56;5011525;28;20088;-60
2021/05/08 05:03:58;;;;;;;0.28;0.28;;;;;;;19.31;28.90;98333.47;5012617;28;20604;-60
2021/05/08 05:06:24;;;;;;;0.20;0.20;;;;;;;19.32;28.69;98329.59;5012371;28;20057;-60
2021/05/08 05:08:50;;;;;;;0.10;0.10;;;;;;;19.39;28.91;98337.53;5012221;28;20113;-61
2021/05/08 05:11:17;;;;;;;0.20;0.20;;;;;;;19.48;28.72;98344.06;5012222;28;20036;-61
2021/05/08 05:13:44;;;;;;;0.10;0.10;;;;;;;19.59;28.72;98345.53;5011981;28;20041;-61
2021/05/08 05:16:10;;;;;;;0.10;0.10;;;;;;;19.59;28.88;98345.53;5012016;28;20061;-60
2021/05/08 05:18:36;;;;;;;0.10;0.10;;;;;;;19.62;28.73;98344.09;5012041;28;20545;-60
2021/05/08 05:21:02;;;;;;;0.40;0.40;;;;;;;19.69;28.77;98340.91;5011829;28;20225;-59
2021/05/08 05:23:27;;;;;;;3.60;0.30;;;;;;;19.84;28.55;98348.19;5012016;28;20041;-59
2021/05/08 05:25:54;;;;;;;0.20;0.20;;;;;;;20.01;28.32;98337.28;5011895;28;20092;-61
2021/05/08 05:28:25;;;;;;;0.10;0.10;;;;;;;20.25;28.28;98339.84;5011364;28;20034;-62
2021/05/08 05:30:51;;;;;;;0.10;0.10;;;;;;;20.55;27.84;98337.53;5009870;28;20068;-60
2021/05/08 05:33:18;;;;;;;0.60;0.20;;;;;;;20.87;27.61;98335.75;5011806;28;20029;-60
2021/05/08 05:35:47;;;;;;;0.20;0.20;;;;;;;21.20;27.50;98343.91;5009961;28;20021;-61
2021/05/08 05:38:13;;;;;;;0.17;0.17;;;;;;;21.57;27.14;98341.91;4994098;28;20037;-62
2021/05/08 05:40:39;;;;;;;0.10;0.10;;;;;;;21.90;26.68;98338.78;5009625;28;20164;-59
2021/05/08 05:43:05;;;;;;;0.40;0.40;;;;;;;22.19;26.69;98343.03;5010818;28;20022;-60
2021/05/08 05:45:30;;;;;;;0.35;0.35;;;;;;;22.53;26.34;98349.91;5011998;28;20030;-61
2021/05/08 05:48:02;;;;;;;0.10;0.10;;;;;;;22.83;26.12;98330.53;5009268;28;20041;-61
2021/05/08 05:50:28;;;;;;;0.10;0.10;;;;;;;23.14;26.09;98337.97;5011461;28;20030;-61
2021/05/08 05:52:54;;;;;;;0.55;0.50;;;;;;;23.39;25.84;98339.91;5011591;28;20602;-60
2021/05/08 05:55:21;;;;;;;0.10;0.10;;;;;;;23.65;25.92;98333.44;5012273;28;20037;-60
2021/05/08 05:57:48;;;;;;;0.13;0.10;;;;;;;23.92;25.35;98334.22;5011939;28;20049;-60
2021/05/08 06:00:14;;;;;;;0.10;0.10;;;;;;;24.14;25.26;98334.00;5011959;28;20042;-58
2021/05/08 06:02:41;;;;;;;0.10;0.10;;;;;;;24.32;25.33;98333.88;5012243;28;20065;-57
2021/05/08 06:05:08;;;;;;;0.10;0.10;;;;;;;24.48;25.00;98329.34;5012235;28;20033;-59
2021/05/08 06:07:34;;;;;;;0.10;0.10;;;;;;;24.68;24.82;98331.75;5011951;28;20112;-61
2021/05/08 06:10:01;;;;;;;0.10;0.10;;;;;;;24.87;24.80;98331.25;5012174;28;20064;-60
2021/05/08 06:12:26;;;;;;;0.52;0.50;;;;;;;25.05;24.98;98329.16;5012221;28;20033;-60
2021/05/08 06:14:52;;;;;;;0.10;0.10;;;;;;;25.18;24.87;98328.06;4994618;28;20026;-62
2021/05/08 06:17:18;;;;;;;0.20;0.20;;;;;;;25.28;24.57;98329.59;5011860;28;20037;-62
2021/05/08 06:19:44;;;;;;;0.10;0.10;;;;;;;25.27;24.92;98328.78;4994498;28;20026;-57
2021/05/08 06:22:09;;;;;;;0.13;0.13;;;;;;;25.28;24.49;98326.78;5011534;28;20103;-61
2021/05/08 06:24:35;;;;;;;0.10;0.10;;;;;;;25.27;24.87;98322.38;5012278;28;20069;-60
2021/05/08 06:27:01;;;;;;;0.10;0.10;;;;;;;25.15;24.81;98315.50;4994740;28;20503;-60
2021/05/08 06:29:27;;;;;;;0.20;0.20;;;;;;;25.04;25.17;98319.09;4994968;28;20045;-63
2021/05/08 06:31:52;;;;;;;0.17;0.10;;;;;;;25.06;25.23;98322.34;4994738;28;20026;-53
2021/05/08 06:34:18;;;;;;;0.10;0.10;;;;;;;25.13;24.92;98319.81;5012639;28;20057;-59
2021/05/08 06:36:45;;;;;;;0.20;0.20;;;;;;;25.16;25.05;98321.94;5012849;28;20403;-61
2021/05/08 06:39:11;;;;;;;0.10;0.10;;;;;;;25.13;24.95;98312.22;5012491;28;20034;-63
2021/05/08 06:41:37;;;;;;;0.05;0.05;;;;;;;25.28;24.89;98319.22;5012460;28;20492;-61
2021/05/08 06:44:04;;;;;;;0.10;0.10;;;;;;;25.53;24.73;98319.34;4994889;28;20085;-61
2021/05/08 06:46:30;;;;;;;0.10;0.10;;;;;;;25.69;24.59;98311.03;5011319;28;20062;-61
2021/05/08 06:48:56;;;;;;;0.17;0.17;;;;;;;25.79;24.08;98313.41;5012478;28;20036;-59
2021/05/08 06:51:22;;;;;;;0.10;0.10;;;;;;;25.82;24.23;98307.06;5012389;28;20041;-61
2021/05/08 06:53:48;;;;;;;0.20;0.20;;;;;;;25.92;24.47;98308.63;5012753;28;20120;-60
2021/05/08 06:56:14;;;;;;;0.10;0.10;;;;;;;25.94;24.39;98305.47;5012825;28;20114;-61
2021/05/08 06:58:40;;;;;;;0.98;0.20;;;;;;;25.93;24.45;98301.84;4991398;28;20054;-59
2021/05/08 07:01:07;;;;;;;0.10;0.10;;;;;;;25.93;24.30;98303.81;4993064;28;20042;-61
2021/05/08 07:03:33;;;;;;;0.25;0.25;;;;;;;25.86;24.55;98307.22;4992840;28;20408;-60
2021/05/08 07:05:59;;;;;;;0.10;0.10;;;;;;;25.71;24.57;98303.09;4992624;28;20026;-60
2021/05/08 07:08:25;;;;;;;0.10;0.10;;;;;;;25.61;24.41;98298.72;4992743;28;20042;-63
2021/05/08 07:10:52;;;;;;;0.00;0.00;;;;;;;25.56;24.62;98295.31;4993121;28;20162;-62
2021/05/08 07:13:19;;;;;;;0.10;0.10;;;;;;;25.47;24.29;98286.97;4992456;28;20041;-61
2021/05/08 07:15:45;;;;;;;0.30;0.30;;;;;;;25.42;24.36;98299.25;4991205;28;20407;-63
2021/05/08 07:18:11;;;;;;;0.22;0.22;;;;;;;25.37;24.40;98296.66;4990915;28;20121;-60
2021/05/08 07:20:38;;;;;;;0.10;0.10;;;;;;;25.32;24.67;98294.06;4990966;28;20088;-61
2021/05/08 07:23:05;;;;;;;0.00;0.00;;;;;;;25.23;24.75;98287.69;4990860;28;20062;-61
2021/05/08 07:25:32;;;;;;;0.03;0.03;;;;;;;25.06;24.60;98291.47;4992640;28;20030;-61
2021/05/08 07:28:08;;;;;;;0.30;0.30;;;;;;;24.98;24.58;98287.56;4994368;28;20166;-61
2021/05/08 07:30:36;;;;;;;0.20;0.20;;;;;;;24.95;24.53;98294.69;4994415;28;20026;-61
2021/05/08 07:33:04;;;;;;;0.00;0.00;;;;;;;25.07;24.70;98285.50;4993978;28;20443;-62
2021/05/08 07:35:30;;;;;;;0.00;0.00;;;;;;;25.19;24.49;98294.00;5010750;28;20404;-60
2021/05/08 07:37:56;;;;;;;0.10;0.10;;;;;;;25.15;24.59;98295.03;4993093;28;20029;-61
2021/05/08 07:40:22;;;;;;;0.10;0.10;;;;;;;25.09;24.16;98285.16;4994873;28;20037;-59
2021/05/08 07:42:48;;;;;;;0.00;0.00;;;;;;;25.14;24.10;98282.97;4994168;28;20077;-62
2021/05/08 07:45:14;;;;;;;0.10;0.10;;;;;;;25.27;24.20;98283.84;4994108;28;20033;-61
2021/05/08 07:47:40;;;;;;;0.15;0.15;;;;;;;25.40;24.01;98272.66;4994044;28;20036;-60
2021/05/08 07:50:07;;;;;;;0.00;0.00;;;;;;;25.52;23.48;98279.13;4994029;28;20030;-60
2021/05/08 07:52:34;;;;;;;0.10;0.10;;;;;;;25.41;23.75;98272.34;4994885;28;20092;-60
2021/05/08 07:54:59;;;;;;;0.15;0.10;;;;;;;25.23;24.08;98271.63;4995712;28;20125;-64
2021/05/08 07:57:25;;;;;;;0.10;0.10;;;;;;;25.12;23.86;98274.06;5010610;28;20125;-60
2021/05/08 07:59:51;;;;;;;0.15;0.15;;;;;;;25.07;24.34;98274.25;5014580;28;20038;-64
2021/05/08 08:02:17;;;;;;;0.20;0.20;;;;;;;25.02;23.91;98278.09;5014929;28;20041;-64
2021/05/08 08:04:42;;;;;;;0.10;0.10;;;;;;;25.02;24.04;98277.28;5014382;28;20030;-60
2021/05/08 08:07:08;;;;;;;0.65;0.20;;;;;;;25.06;24.13;98272.63;5015174;28;20525;-61
2021/05/08 08:09:34;;;;;;;0.10;0.10;;;;;;;25.14;23.89;98277.34;4997425;28;20022;-61
2021/05/08 08:12:00;;;;;;;0.10;0.10;;;;;;;25.11;23.96;98280.84;5015013;28;20121;-61
2021/05/08 08:14:26;;;;;;;0.20;0.20;;;;;;;25.05;24.20;98271.00;5013409;28;20519;-63
2021/05/08 08:16:52;;;;;;;0.10;0.10;;;;;;;25.11;23.84;98268.78;5014046;28;20034;-61
2021/05/08 08:19:18;;;;;;;0.10;0.10;;;;;;;25.17;23.96;98267.41;5014189;28;20075;-59
2021/05/08 08:21:44;;;;;;;0.10;0.10;;;;;;;25.21;23.43;98268.38;4996649;28;20130;-60
2021/05/08 08:24:10;;;;;;;1.20;0.17;;;;;;;25.31;23.51;98262.34;5014275;28;20037;-60
2021/05/08 08:26:36;;;;;;;0.00;0.00;;;;;;;25.44;23.34;98266.03;5010299;28;20037;-61
2021/05/08 08:29:03;;;;;;;0.08;0.08;;;;;;;25.49;23.35;98265.78;5013639;28;20068;-61
2021/05/08 08:31:29;;;;;;;0.00;0.00;;;;;;;25.50;23.25;98264.63;5013273;28;20442;-63
2021/05/08 08:33:55;;;;;;;0.20;0.20;;;;;;;25.39;23.51;98263.41;5013808;28;20395;-61
2021/05/08 08:36:21;;;;;;;0.17;0.17;;;;;;;25.27;23.47;98271.78;5012603;28;20049;-60
2021/05/08 08:38:47;;;;;;;0.10;0.10;;;;;;;25.11;23.61;98258.38;5012845;28;20030;-64
2021/05/08 08:41:13;;;;;;;0.10;0.10;;;;;;;25.02;23.97;98260.44;5013919;28;20533;-63
2021/05/08 08:43:39;;;;;;;0.10;0.10;;;;;;;24.99;23.78;98255.53;4995511;28;20040;-64
2021/05/08 08:46:06;;;;;;;0.10;0.10;;;;;;;24.86;24.06;98251.81;4979667;28;20469;-61
2021/05/08 08:48:32;;;;;;;0.10;0.10;;;;;;;24.72;23.79;98254.94;5012529;28;20053;-61
2021/05/08 08:50:58;;;;;;;0.10;0.10;;;;;;;24.59;23.81;98264.44;5013735;28;20034;-61
2021/05/08 08:53:24;;;;;;;0.00;0.00;;;;;;;24.38;24.09;98262.41;5013504;28;20456;-62
2021/05/08 08:55:53;;;;;;;0.10;0.10;;;;;;;24.18;24.58;98260.38;5013736;28;20034;-63
2021/05/08 08:58:34;;;;;;;0.00;0.00;;;;;;;24.09;24.52;98261.25;5013403;28;20053;-60
2021/05/08 09:01:00;;;;;;;0.10;0.10;;;;;;;24.17;23.98;98258.72;4995889;28;20092;-61
2021/05/08 09:03:27;;;;;;;0.10;0.10;;;;;;;24.25;23.84;98250.28;5013526;28;20072;-64
2021/05/08 09:05:53;;;;;;;0.10;0.10;;;;;;;24.31;23.95;98259.31;5013419;28;20026;-65
2021/05/08 09:08:19;;;;;;;0.10;0.10;;;;;;;24.35;23.81;98257.47;5013524;28;20555;-62
2021/05/08 09:10:45;;;;;;;0.10;0.10;;;;;;;24.48;23.62;98258.38;4994183;28;20905;-64
2021/05/08 09:13:20;;;;;;;0.00;0.00;;;;;;;24.68;23.34;98242.75;5010642;28;20042;-60
2021/05/08 09:15:48;;;;;;;0.10;0.10;;;;;;;24.90;23.21;98247.16;4973833;28;20082;-60
2021/05/08 09:18:35;;;;;;;0.10;0.10;;;;;;;25.01;22.86;98251.22;5011283;28;20038;-62
2021/05/08 09:21:21;;;;;;;0.10;0.10;;;;;;;25.03;22.58;98245.25;5011225;28;20158;-63
2021/05/08 09:23:47;;;;;;;0.10;0.10;;;;;;;25.02;22.87;98246.41;5010359;28;20080;-62
2021/05/08 09:26:14;;;;;;;0.10;0.10;;;;;;;25.08;22.86;98244.22;5010145;28;20408;-64
2021/05/08 09:28:50;;;;;;;0.10;0.10;;;;;;;25.21;22.37;98245.09;5011473;28;20034;-65
2021/05/08 09:31:16;;;;;;;0.10;0.10;;;;;;;25.32;22.44;98244.31;5011080;28;20033;-64
2021/05/08 09:33:50;;;;;;;0.10;0.10;;;;;;;25.42;22.33;98239.44;5009588;28;20427;-62
2021/05/08 09:36:17;;;;;;;0.00;0.00;;;;;;;25.52;22.16;98244.59;5012813;28;20399;-64
2021/05/08 09:38:45;;;;;;;0.10;0.10;;;;;;;25.54;22.27;98242.25;5013173;28;20030;-62
2021/05/08 09:41:13;;;;;;;0.00;0.00;;;;;;;25.48;22.28;98230.41;5012675;28;20084;-63
2021/05/08 09:43:40;;;;;;;0.10;0.10;;;;;;;25.49;22.13;98240.50;4994669;28;20117;-62
2021/05/08 09:46:07;;;;;;;0.00;0.00;;;;;;;25.61;22.28;98231.25;5011608;28;20028;-64
2021/05/08 09:48:37;;;;;;;0.00;0.00;;;;;;;25.78;21.79;98223.78;5012633;28;20033;-64
2021/05/08 09:51:28;;;;;;;0.10;0.10;;;;;;;25.86;21.59;98231.28;5012832;28;20503;-63
2021/05/08 09:54:02;;;;;;;0.10;0.10;;;;;;;25.83;21.95;98227.19;5012592;28;20057;-62
2021/05/08 09:56:33;;;;;;;0.63;0.57;;;;;;;25.83;21.78;98224.38;5012685;28;20026;-63
2021/05/08 09:59:30;;;;;;;0.10;0.10;;;;;;;25.99;21.47;98227.31;5012754;28;20401;-62
2021/05/08 10:02:05;;;;;;;0.10;0.10;;;;;;;26.17;21.67;98222.28;5012585;28;20531;-63
2021/05/08 10:04:47;;;;;;;0.22;0.20;;;;;;;26.18;21.28;98229.56;5012416;28;20021;-61
2021/05/08 10:07:19;;;;;;;0.10;0.10;;;;;;;26.04;21.37;98226.28;5012465;28;20038;-61
2021/05/08 10:09:47;;;;;;;0.10;0.10;;;;;;;25.88;21.72;98224.16;5011936;28;20107;-60
2021/05/08 10:12:17;;;;;;;0.00;0.00;;;;;;;25.81;21.85;98223.91;5010779;28;20432;-60
2021/05/08 10:14:45;;;;;;;0.00;0.00;;;;;;;25.69;22.09;98218.25;5010741;28;20033;-60
2021/05/08 10:17:13;;;;;;;0.10;0.10;;;;;;;25.62;21.94;98224.47;5011929;28;20033;-60
2021/05/08 10:19:40;;;;;;;0.00;0.00;;;;;;;25.58;22.09;98215.09;5012490;28;20033;-62
2021/05/08 10:22:08;;;;;;;0.10;0.10;;;;;;;25.49;22.16;98217.19;5013747;28;20042;-63
2021/05/08 10:24:35;;;;;;;0.03;0.03;;;;;;;25.32;22.30;98216.22;4995413;28;20031;-63
2021/05/08 10:27:01;;;;;;;1.23;0.47;;;;;;;25.25;22.39;98212.28;5011073;28;20044;-61
2021/05/08 10:29:36;;;;;;;0.45;0.17;;;;;;;25.04;22.05;98210.34;5010681;28;20545;-63
2021/05/08 10:32:05;;;;;;;0.20;0.10;;;;;;;24.89;22.31;98211.00;5012318;28;20050;-63
2021/05/08 10:34:37;;;;;;;0.10;0.10;;;;;;;24.75;22.27;98209.31;5011230;28;20032;-62
2021/05/08 10:37:11;;;;;;;0.32;0.10;;;;;;;24.73;22.52;98213.63;4994544;28;20030;-62
2021/05/08 10:40:03;;;;;;;0.00;0.00;;;;;;;24.65;22.38;98210.56;5012508;28;20030;-62
2021/05/08 10:42:39;;;;;;;0.80;0.22;;;;;;;24.62;22.20;98218.84;4992543;28;20030;-62
2021/05/08 10:45:05;;;;;;;0.10;0.10;;;;;;;24.70;22.35;98217.13;4992972;28;20128;-62
2021/05/08 10:47:55;;;;;;;0.00;0.00;;;;;;;24.67;22.38;98210.22;4992854;28;20073;-62
2021/05/08 10:50:27;;;;;;;0.10;0.10;;;;;;;24.62;22.05;98216.84;4992934;28;20050;-63
2021/05/08 10:53:08;;;;;;;0.10;0.10;;;;;;;24.66;22.30;98209.41;4973672;28;20030;-63
2021/05/08 10:55:48;;;;;;;0.00;0.00;;;;;;;24.66;22.14;98211.34;4992948;28;20165;-61
2021/05/08 10:58:17;;;;;;;0.00;0.00;;;;;;;24.63;22.31;98209.25;4992404;28;20050;-62
2021/05/08 11:00:56;;;;;;;0.10;0.10;;;;;;;24.61;22.01;98208.78;4996020;28;20507;-62
2021/05/08 11:03:24;;;;;;;0.00;0.00;;;;;;;24.59;22.31;98209.13;4996815;28;20046;-62
2021/05/08 11:06:04;;;;;;;0.00;0.00;;;;;;;24.50;22.38;98211.16;4995643;28;20036;-53
2021/05/08 11:08:30;;;;;;;0.10;0.10;;;;;;;24.40;22.14;98214.38;4993368;28;20030;-61
2021/05/08 11:11:00;;;;;;;0.30;0.30;;;;;;;24.32;22.31;98204.81;4995917;28;20089;-61
2021/05/08 11:13:48;;;;;;;0.08;0.08;;;;;;;24.31;22.25;98206.00;4995680;28;20061;-61
2021/05/08 11:16:23;;;;;;;0.10;0.10;;;;;;;24.28;22.22;98201.09;4992391;28;20104;-61
2021/05/08 11:18:53;;;;;;;0.17;0.17;;;;;;;24.28;22.12;98204.69;4995013;28;20038;-59
2021/05/08 11:21:19;;;;;;;0.00;0.00;;;;;;;24.31;22.06;98201.22;4995512;28;20121;-59
2021/05/08 11:23:45;;;;;;;0.10;0.10;;;;;;;24.30;22.18;98195.94;4994771;28;20053;-58
2021/05/08 11:26:21;;;;;;;0.10;0.10;;;;;;;24.29;22.25;98205.50;4995863;28;20038;-58
2021/05/08 11:28:57;;;;;;;0.10;0.10;;;;;;;24.26;21.89;98194.97;4995854;28;20030;-58
2021/05/08 11:31:27;;;;;;;0.73;0.52;;;;;;;24.18;22.04;98195.88;4996075;28;20551;-58
2021/05/08 11:34:21;;;;;;;0.10;0.10;;;;;;;24.12;22.36;98196.06;4995880;28;20026;-58
2021/05/08 11:36:53;;;;;;;0.10;0.10;;;;;;;24.09;22.03;98185.53;4995735;28;20061;-58